Glace, West Virginia
Current Conditions -  °F | °C
As of 9:00 PM on Wednesday 22 Oct 2014 (Local Time) from KLWB Reporting Station
Overcast Overcast  
Wind Chill: 44°   Ceiling: 2000
Heat Index: 48°   Visibility: 10mi
Dew Point: 39°   Wind: 9mph
Humidity: 72%   Direction: 330°NNW
Pressure: 30.13"   Gusts: NA
Location:  37.68°N, 80.34°W
Report Text: KLWB 230100Z AUTO 33008KT 10SM BKN020 OVC026 09/04 A3013 RMK AO2 T00880040
Loading
Personal Weather Stations






























Interactive Weather Map
Tropical Storm Tracking
New forecast layout! Learn more

10-Day Weather Forecast

Advertisements
Track Severe Weather on mobile